Time;durP1;ratioP1;P1;durP2;ratioP2;P2;SDS_P1;SDS_P2;PMS_P1;PMS_P2;Temp;Humidity;BMP_temperature;BMP_pressure;BME280_temperature;BME280_humidity;BME280_pressure;Samples;Min_cycle;Max_cycle;Signal;HPM_P1;HPM_P2
2021/10/18 00:02:24;;;;;;;3.60;2.25;;;12.40;96.70;;;;;;5104114;27;20070;-80
2021/10/18 00:04:52;;;;;;;2.78;2.05;;;12.40;96.70;;;;;;5122196;27;20071;-81
2021/10/18 00:07:22;;;;;;;4.93;2.00;;;12.40;96.70;;;;;;5104623;27;20031;-80
2021/10/18 00:09:50;;;;;;;4.60;2.17;;;12.30;96.70;;;;;;5122053;27;20035;-81
2021/10/18 00:12:19;;;;;;;3.25;2.03;;;12.30;96.70;;;;;;5123282;27;20485;-81
2021/10/18 00:14:47;;;;;;;3.30;2.10;;;12.30;96.70;;;;;;5120320;27;20178;-81
2021/10/18 00:17:16;;;;;;;4.75;2.60;;;12.10;96.70;;;;;;5088289;27;20082;-80
2021/10/18 00:19:44;;;;;;;2.53;2.03;;;12.10;96.70;;;;;;5101896;27;20036;-81
2021/10/18 00:22:12;;;;;;;5.15;2.30;;;12.10;96.70;;;;;;5105317;27;20126;-81
2021/10/18 00:24:40;;;;;;;3.92;2.33;;;12.10;96.70;;;;;;5101673;27;20039;-80
2021/10/18 00:27:08;;;;;;;6.80;3.22;;;12.10;96.70;;;;;;5105180;27;20050;-81
2021/10/18 00:29:37;;;;;;;5.78;2.95;;;12.10;96.70;;;;;;5101190;28;20039;-81
2021/10/18 00:32:06;;;;;;;4.68;2.75;;;12.10;96.70;;;;;;5098850;28;20039;-81
2021/10/18 00:34:34;;;;;;;3.13;2.45;;;12.00;96.70;;;;;;5121145;27;20092;-81
2021/10/18 00:37:03;;;;;;;3.42;2.60;;;11.90;96.70;;;;;;5096851;28;20349;-80
2021/10/18 00:39:31;;;;;;;4.00;2.75;;;11.80;96.70;;;;;;5102169;28;20104;-80
2021/10/18 00:41:59;;;;;;;4.05;2.88;;;11.80;96.70;;;;;;5101164;28;20043;-81
2021/10/18 00:44:27;;;;;;;7.35;3.58;;;11.80;96.70;;;;;;5119301;28;20031;-81
2021/10/18 00:46:57;;;;;;;5.80;3.30;;;11.90;96.70;;;;;;5102003;28;20117;-81
2021/10/18 00:49:25;;;;;;;4.82;3.67;;;11.80;96.70;;;;;;5117199;28;20066;-82
2021/10/18 00:51:53;;;;;;;6.47;3.90;;;11.80;96.70;;;;;;5114758;28;20504;-81
2021/10/18 00:54:21;;;;;;;5.80;3.65;;;11.80;96.70;;;;;;5097811;28;20130;-81
2021/10/18 00:56:49;;;;;;;4.93;3.63;;;11.70;96.70;;;;;;5118168;28;20035;-81
2021/10/18 00:59:18;;;;;;;3.17;2.88;;;11.60;96.70;;;;;;5115712;28;20200;-80
2021/10/18 01:01:46;;;;;;;4.47;2.72;;;11.50;96.70;;;;;;5102010;28;20039;-80
2021/10/18 01:04:17;;;;;;;5.22;2.70;;;11.60;96.70;;;;;;5103982;28;20400;-80
2021/10/18 01:06:45;;;;;;;3.72;2.60;;;11.50;96.70;;;;;;5114823;28;20093;-80
2021/10/18 01:09:13;;;;;;;5.32;3.00;;;11.60;96.70;;;;;;5100849;28;20032;-80
2021/10/18 01:11:41;;;;;;;4.28;2.60;;;11.50;96.70;;;;;;5098945;28;20067;-80
2021/10/18 01:14:10;;;;;;;4.43;2.72;;;11.50;96.70;;;;;;5103044;28;20286;-80
2021/10/18 01:16:38;;;;;;;3.50;2.30;;;11.40;96.70;;;;;;5118936;28;20464;-80
2021/10/18 01:19:10;;;;;;;3.63;2.53;;;11.50;96.70;;;;;;5103502;28;20067;-80
2021/10/18 01:21:41;;;;;;;3.38;1.90;;;11.50;96.70;;;;;;5119875;28;20096;-80
2021/10/18 01:24:09;;;;;;;3.92;2.53;;;11.50;96.70;;;;;;5101959;28;20580;-80
2021/10/18 01:26:38;;;;;;;4.85;2.33;;;11.60;96.70;;;;;;5103148;28;20050;-79
2021/10/18 01:29:06;;;;;;;3.10;2.30;;;11.60;96.70;;;;;;5103955;28;20042;-80
2021/10/18 01:31:34;;;;;;;3.20;2.50;;;11.60;96.70;;;;;;5098795;28;20177;-79
2021/10/18 01:34:02;;;;;;;3.22;2.00;;;11.50;96.70;;;;;;5119995;28;20037;-80
2021/10/18 01:36:31;;;;;;;4.57;2.55;;;11.40;96.70;;;;;;5097739;28;20084;-80
2021/10/18 01:39:00;;;;;;;3.33;2.67;;;11.40;96.70;;;;;;5095083;28;20048;-80
2021/10/18 01:41:28;;;;;;;5.03;2.97;;;11.40;96.70;;;;;;5099278;28;20089;-80
2021/10/18 01:43:58;;;;;;;2.88;2.50;;;11.30;96.70;;;;;;5117055;27;20595;-81
2021/10/18 01:46:27;;;;;;;3.53;2.60;;;11.30;96.70;;;;;;5102707;28;20043;-79
2021/10/18 01:48:55;;;;;;;4.93;2.65;;;11.40;96.70;;;;;;5104092;27;20100;-79
2021/10/18 01:51:23;;;;;;;3.80;2.38;;;11.40;96.70;;;;;;5101231;28;20579;-79
2021/10/18 01:53:51;;;;;;;4.95;2.80;;;11.40;96.70;;;;;;5095246;28;20079;-79
2021/10/18 01:56:20;;;;;;;4.38;2.63;;;11.40;96.70;;;;;;5098424;28;20044;-79
2021/10/18 01:58:48;;;;;;;3.70;2.40;;;11.30;96.70;;;;;;5103935;28;20093;-79
2021/10/18 02:01:16;;;;;;;3.75;2.50;;;11.40;96.70;;;;;;5103410;28;20329;-79
2021/10/18 02:03:44;;;;;;;2.97;2.40;;;11.30;96.70;;;;;;5101939;28;20039;-79
2021/10/18 02:06:12;;;;;;;4.30;2.25;;;11.30;96.70;;;;;;5096064;28;20048;-79
2021/10/18 02:08:40;;;;;;;3.55;2.42;;;11.30;96.70;;;;;;5102486;28;20171;-79
2021/10/18 02:11:12;;;;;;;4.22;2.58;;;11.10;96.70;;;;;;5100736;28;20124;-79
2021/10/18 02:13:42;;;;;;;4.05;2.72;;;11.00;96.70;;;;;;5082159;28;20117;-79
2021/10/18 02:16:10;;;;;;;3.60;2.17;;;10.90;96.70;;;;;;5102180;28;20043;-79
2021/10/18 02:18:38;;;;;;;3.90;2.25;;;10.90;96.70;;;;;;5098630;28;20043;-78
2021/10/18 02:21:06;;;;;;;4.38;2.42;;;10.80;96.70;;;;;;5103074;28;20039;-78
2021/10/18 02:23:34;;;;;;;3.70;2.50;;;10.90;96.70;;;;;;5098669;28;20119;-79
2021/10/18 02:26:02;;;;;;;3.92;2.08;;;10.80;96.70;;;;;;5103729;28;20036;-79
2021/10/18 02:28:30;;;;;;;2.85;2.15;;;10.80;96.70;;;;;;5100014;28;20143;-78
2021/10/18 02:30:59;;;;;;;4.03;2.47;;;10.90;96.70;;;;;;5102249;28;20051;-78
2021/10/18 02:33:28;;;;;;;4.15;2.50;;;11.00;96.70;;;;;;5100351;28;20051;-78
2021/10/18 02:35:56;;;;;;;4.65;2.47;;;10.90;96.70;;;;;;5086011;28;20055;-79
2021/10/18 02:38:24;;;;;;;2.95;2.13;;;10.90;96.70;;;;;;5101067;28;20520;-79
2021/10/18 02:40:53;;;;;;;2.70;2.10;;;10.90;96.70;;;;;;5118101;27;20056;-78
2021/10/18 02:43:21;;;;;;;2.22;1.77;;;10.90;96.70;;;;;;5097395;28;20209;-78
2021/10/18 02:45:50;;;;;;;2.60;2.00;;;10.90;96.70;;;;;;5093062;28;20044;-79
2021/10/18 02:48:20;;;;;;;2.88;2.30;;;10.90;96.70;;;;;;5101078;27;20039;-78
2021/10/18 02:50:48;;;;;;;2.83;1.95;;;10.90;96.70;;;;;;5088077;28;20051;-79
2021/10/18 02:53:20;;;;;;;3.85;2.20;;;10.80;96.70;;;;;;5104020;27;20047;-79
2021/10/18 02:55:49;;;;;;;2.95;2.00;;;10.60;96.70;;;;;;5086461;28;20047;-78
2021/10/18 02:58:17;;;;;;;3.50;2.00;;;10.60;96.70;;;;;;5080461;28;20520;-79
2021/10/18 03:00:45;;;;;;;3.33;1.98;;;10.50;96.70;;;;;;5102217;28;20122;-78
2021/10/18 03:03:13;;;;;;;3.17;2.50;;;10.50;96.70;;;;;;5098118;28;20075;-79
2021/10/18 03:05:43;;;;;;;3.22;1.88;;;10.50;96.70;;;;;;5101583;28;20053;-78
2021/10/18 03:08:11;;;;;;;3.03;1.95;;;10.40;96.70;;;;;;5099353;28;20420;-78
2021/10/18 03:10:43;;;;;;;2.97;2.20;;;10.50;96.70;;;;;;5103060;27;20532;-79
2021/10/18 03:13:14;;;;;;;3.63;1.90;;;10.40;96.70;;;;;;5099723;28;20120;-78
2021/10/18 03:15:48;;;;;;;2.22;1.80;;;10.40;96.70;;;;;;5102222;28;20054;-80
2021/10/18 03:18:16;;;;;;;3.58;2.00;;;10.30;96.70;;;;;;5097162;28;20497;-80
2021/10/18 03:20:46;;;;;;;3.05;1.92;;;10.30;96.70;;;;;;5099631;28;20074;-78
2021/10/18 03:23:14;;;;;;;3.38;2.03;;;10.40;96.70;;;;;;5099870;28;20051;-78
2021/10/18 03:25:42;;;;;;;3.55;2.15;;;10.40;96.70;;;;;;5095510;28;20044;-78
2021/10/18 03:28:10;;;;;;;3.63;2.03;;;10.30;96.70;;;;;;5099630;28;20405;-78
2021/10/18 03:30:39;;;;;;;5.28;2.40;;;10.30;96.70;;;;;;5095829;28;20047;-79
2021/10/18 03:33:07;;;;;;;4.95;1.80;;;10.40;96.70;;;;;;5100597;28;20126;-78
2021/10/18 03:35:35;;;;;;;3.42;2.30;;;10.40;96.70;;;;;;5097224;27;20928;-78
2021/10/18 03:38:05;;;;;;;3.35;2.45;;;10.40;96.70;;;;;;5115559;27;20076;-78
2021/10/18 03:40:33;;;;;;;2.97;2.17;;;10.40;96.70;;;;;;5120358;27;20031;-78
2021/10/18 03:43:01;;;;;;;3.97;2.15;;;10.40;96.70;;;;;;5103878;27;20405;-78
2021/10/18 03:45:29;;;;;;;4.15;2.72;;;10.40;96.70;;;;;;5086498;27;20505;-79
2021/10/18 03:47:57;;;;;;;5.30;2.28;;;10.50;96.70;;;;;;5104756;27;20483;-78
2021/10/18 03:50:26;;;;;;;4.70;2.60;;;10.50;96.70;;;;;;5118897;27;20130;-78
2021/10/18 03:52:55;;;;;;;4.60;3.10;;;10.50;96.70;;;;;;5122493;27;20054;-79
2021/10/18 03:55:25;;;;;;;2.67;2.42;;;10.40;96.70;;;;;;5101715;27;20518;-78
2021/10/18 03:57:53;;;;;;;3.53;2.33;;;10.50;96.70;;;;;;5101766;27;20400;-79
2021/10/18 04:00:22;;;;;;;4.38;2.70;;;10.40;96.70;;;;;;5110640;27;20461;-78
2021/10/18 04:02:51;;;;;;;3.13;2.28;;;10.40;96.70;;;;;;5102169;27;20488;-78
2021/10/18 04:05:19;;;;;;;4.43;2.67;;;10.40;96.70;;;;;;5119554;27;20042;-79
2021/10/18 04:07:48;;;;;;;5.47;2.85;;;10.50;96.70;;;;;;5117680;27;20544;-79
2021/10/18 04:10:20;;;;;;;4.78;3.15;;;10.50;96.70;;;;;;5102546;27;21022;-79
2021/10/18 04:12:49;;;;;;;5.93;3.25;;;10.50;96.70;;;;;;5103471;27;20054;-78
2021/10/18 04:15:19;;;;;;;5.25;2.60;;;10.40;96.70;;;;;;5100732;27;20058;-78
2021/10/18 04:17:47;;;;;;;4.00;2.85;;;10.40;96.70;;;;;;5090922;27;20047;-78
2021/10/18 04:20:17;;;;;;;5.05;2.40;;;10.30;96.70;;;;;;5102279;27;20112;-78
2021/10/18 04:22:48;;;;;;;4.75;2.63;;;10.30;96.70;;;;;;5103592;27;20062;-80
2021/10/18 04:25:17;;;;;;;3.38;2.60;;;10.30;96.70;;;;;;5119258;27;20442;-79
2021/10/18 04:27:45;;;;;;;4.57;2.40;;;10.40;96.70;;;;;;5097424;28;20438;-79
2021/10/18 04:30:15;;;;;;;3.85;2.40;;;10.40;96.70;;;;;;5116434;27;20054;-79
2021/10/18 04:32:44;;;;;;;5.60;2.88;;;10.40;96.70;;;;;;5121903;27;20046;-79
2021/10/18 04:35:12;;;;;;;2.72;2.35;;;10.30;96.70;;;;;;5119651;27;20590;-80
2021/10/18 04:37:40;;;;;;;5.75;2.83;;;10.30;96.70;;;;;;5099028;28;20850;-80
2021/10/18 04:40:09;;;;;;;4.70;2.75;;;10.30;96.70;;;;;;5097053;28;20398;-79
2021/10/18 04:42:37;;;;;;;3.75;2.35;;;10.30;96.70;;;;;;5120052;28;20208;-80
2021/10/18 04:45:07;;;;;;;3.63;2.42;;;10.20;96.70;;;;;;5086757;28;20043;-79
2021/10/18 04:47:42;;;;;;;5.22;2.88;;;10.30;96.70;;;;;;5099766;28;20051;-79
2021/10/18 04:50:10;;;;;;;3.63;2.70;;;10.30;96.70;;;;;;5120575;28;20056;-79
2021/10/18 04:52:39;;;;;;;4.95;2.70;;;10.20;96.70;;;;;;5099565;28;20031;-79
2021/10/18 04:55:08;;;;;;;3.58;2.38;;;10.20;96.70;;;;;;5100658;28;20112;-80
2021/10/18 04:57:52;;;;;;;3.03;2.55;;;10.20;96.70;;;;;;5100307;28;20031;-79
2021/10/18 05:00:21;;;;;;;3.45;2.22;;;10.20;96.70;;;;;;5100514;28;20043;-80
2021/10/18 05:02:51;;;;;;;3.78;2.20;;;10.20;96.70;;;;;;5102670;28;20456;-79
2021/10/18 05:05:20;;;;;;;3.75;2.35;;;10.10;96.70;;;;;;5121615;28;20444;-79
2021/10/18 05:08:00;;;;;;;5.13;2.58;;;10.10;96.70;;;;;;5099585;28;20039;-80
2021/10/18 05:10:28;;;;;;;4.28;2.90;;;10.00;96.70;;;;;;5119023;28;20059;-79
2021/10/18 05:12:57;;;;;;;6.93;2.78;;;10.00;96.70;;;;;;5117393;28;20043;-80
2021/10/18 05:15:25;;;;;;;4.15;2.63;;;10.00;96.70;;;;;;5104353;28;20125;-80
2021/10/18 05:17:54;;;;;;;5.57;2.75;;;10.00;96.70;;;;;;5120793;27;20070;-80
2021/10/18 05:20:23;;;;;;;6.40;3.17;;;10.00;96.70;;;;;;5106369;27;20419;-80
2021/10/18 05:22:51;;;;;;;5.10;2.97;;;10.10;96.70;;;;;;5119315;27;20043;-80
2021/10/18 05:25:19;;;;;;;10.18;4.18;;;10.00;96.70;;;;;;5092882;27;20158;-81
2021/10/18 05:27:47;;;;;;;12.32;3.58;;;10.00;96.70;;;;;;5121864;27;20387;-80
2021/10/18 05:30:19;;;;;;;11.05;3.13;;;9.90;96.70;;;;;;5105949;27;20622;-80
2021/10/18 05:32:47;;;;;;;8.13;3.05;;;9.90;96.70;;;;;;5104547;27;20047;-80
2021/10/18 05:35:17;;;;;;;8.65;3.28;;;9.90;96.70;;;;;;5106581;27;20047;-80
2021/10/18 05:37:45;;;;;;;6.88;2.78;;;9.90;96.70;;;;;;5098844;28;20405;-80
2021/10/18 05:40:15;;;;;;;7.30;2.75;;;9.90;96.70;;;;;;5100667;27;20564;-80
2021/10/18 05:42:43;;;;;;;4.85;2.65;;;9.90;96.70;;;;;;5081799;28;20062;-80
2021/10/18 05:45:12;;;;;;;9.18;3.15;;;9.90;96.70;;;;;;5103168;28;20058;-80
2021/10/18 05:47:55;;;;;;;3.30;2.70;;;9.90;96.70;;;;;;5085828;28;20039;-80
2021/10/18 05:50:26;;;;;;;5.55;2.95;;;9.90;96.70;;;;;;5093957;28;20405;-79
2021/10/18 05:52:55;;;;;;;5.75;2.70;;;9.90;96.70;;;;;;5095562;28;20565;-79
2021/10/18 05:55:23;;;;;;;4.57;3.05;;;10.00;96.70;;;;;;5100378;28;20039;-79
2021/10/18 05:57:53;;;;;;;4.65;2.70;;;10.00;96.70;;;;;;5098643;27;20035;-79
2021/10/18 06:00:22;;;;;;;6.75;3.72;;;10.00;96.70;;;;;;5097447;28;20051;-79
2021/10/18 06:02:51;;;;;;;4.40;3.28;;;10.00;96.70;;;;;;5100751;28;20042;-80
2021/10/18 06:05:22;;;;;;;7.45;3.92;;;10.00;96.70;;;;;;5086348;28;20448;-80
2021/10/18 06:08:02;;;;;;;9.55;3.75;;;10.00;96.70;;;;;;5102968;28;20118;-80
2021/10/18 06:10:30;;;;;;;12.10;4.97;;;10.10;96.70;;;;;;5098391;27;20040;-80
2021/10/18 06:12:58;;;;;;;6.47;3.72;;;10.10;96.70;;;;;;5101448;28;20105;-80
2021/10/18 06:15:26;;;;;;;7.13;3.17;;;10.10;96.70;;;;;;5100964;28;20059;-80
2021/10/18 06:17:54;;;;;;;8.40;3.35;;;10.10;96.70;;;;;;5100624;28;20043;-80
2021/10/18 06:20:23;;;;;;;8.18;3.40;;;10.10;96.70;;;;;;5085315;28;20051;-80
2021/10/18 06:22:52;;;;;;;5.78;3.70;;;10.20;96.70;;;;;;5102845;28;20146;-80
2021/10/18 06:25:21;;;;;;;6.10;3.38;;;10.20;96.70;;;;;;5101216;28;20036;-80
2021/10/18 06:27:49;;;;;;;6.47;4.00;;;10.30;96.70;;;;;;5096678;28;21130;-78
2021/10/18 06:30:19;;;;;;;6.50;4.00;;;10.40;96.70;;;;;;5100069;28;20513;-77
2021/10/18 06:32:52;;;;;;;7.82;4.00;;;10.30;96.70;;;;;;5104137;28;20682;-78
2021/10/18 06:35:20;;;;;;;5.97;4.00;;;10.40;96.70;;;;;;5099913;28;20429;-78
2021/10/18 06:37:49;;;;;;;7.57;4.78;;;10.50;96.70;;;;;;5103945;27;20519;-78
2021/10/18 06:40:19;;;;;;;8.45;4.78;;;10.50;96.70;;;;;;5101306;27;20039;-78
2021/10/18 06:42:47;;;;;;;7.97;4.75;;;10.60;96.70;;;;;;5101436;27;20060;-78
2021/10/18 06:45:15;;;;;;;8.32;4.00;;;10.70;96.70;;;;;;5106423;27;20138;-77
2021/10/18 06:47:43;;;;;;;6.57;4.15;;;10.70;96.70;;;;;;5102773;27;20042;-78
2021/10/18 06:50:11;;;;;;;8.05;4.25;;;10.70;96.70;;;;;;5121913;27;20382;-77
2021/10/18 06:52:42;;;;;;;6.72;4.00;;;10.80;96.70;;;;;;5124305;27;20042;-84
2021/10/18 06:55:12;;;;;;;8.38;3.55;;;10.80;96.70;;;;;;5106071;27;20515;-76
2021/10/18 06:57:41;;;;;;;8.57;5.00;;;10.90;96.70;;;;;;5084933;27;20126;-78
2021/10/18 07:00:10;;;;;;;14.00;6.53;;;11.10;96.70;;;;;;5103563;27;20327;-79
2021/10/18 07:02:38;;;;;;;12.40;7.40;;;11.20;96.70;;;;;;5102881;27;20039;-79
2021/10/18 07:05:06;;;;;;;16.02;8.57;;;11.20;96.70;;;;;;5122497;27;20035;-78
2021/10/18 07:07:37;;;;;;;15.10;9.25;;;11.30;96.70;;;;;;5103417;27;20063;-78
2021/10/18 07:10:08;;;;;;;14.02;8.38;;;11.30;96.70;;;;;;5100261;28;20484;-77
2021/10/18 07:12:36;;;;;;;12.48;7.03;;;11.40;96.70;;;;;;5102568;27;20039;-78
2021/10/18 07:15:07;;;;;;;12.68;6.45;;;11.30;96.70;;;;;;5123069;27;20053;-78
2021/10/18 07:17:35;;;;;;;10.77;5.60;;;11.50;96.70;;;;;;5096390;27;20074;-78
2021/10/18 07:20:06;;;;;;;9.90;6.05;;;11.60;96.70;;;;;;5123695;27;20038;-78
2021/10/18 07:22:44;;;;;;;12.18;6.18;;;11.50;96.70;;;;;;5122119;27;20135;-78
2021/10/18 07:25:13;;;;;;;8.50;4.90;;;11.60;96.70;;;;;;5105463;27;20047;-78
2021/10/18 07:27:44;;;;;;;6.10;4.15;;;11.70;96.70;;;;;;5101969;27;20069;-78
2021/10/18 07:30:14;;;;;;;6.18;4.65;;;11.80;96.70;;;;;;5123030;27;20035;-85
2021/10/18 07:32:44;;;;;;;6.57;4.10;;;11.90;96.70;;;;;;5103540;27;20042;-77
2021/10/18 07:35:14;;;;;;;10.77;4.85;;;11.80;96.70;;;;;;5104698;27;20065;-76
2021/10/18 07:37:48;;;;;;;6.38;4.72;;;11.90;96.70;;;;;;5103389;27;20104;-77
2021/10/18 07:40:17;;;;;;;7.85;4.53;;;11.90;96.70;;;;;;5101793;27;20150;-77
2021/10/18 07:42:45;;;;;;;8.27;4.22;;;12.00;96.70;;;;;;5099032;27;20074;-81
2021/10/18 07:45:14;;;;;;;8.82;5.35;;;12.00;96.70;;;;;;5115044;27;20043;-79
2021/10/18 07:47:43;;;;;;;10.88;5.30;;;12.10;96.70;;;;;;5102011;27;20141;-80
2021/10/18 07:50:12;;;;;;;12.23;5.57;;;12.20;96.70;;;;;;5098436;27;20453;-79
2021/10/18 07:52:41;;;;;;;10.85;5.60;;;12.20;96.70;;;;;;5100678;27;20047;-78
2021/10/18 07:55:20;;;;;;;8.45;5.00;;;12.30;96.70;;;;;;5122073;27;20091;-78
2021/10/18 07:57:50;;;;;;;8.40;5.10;;;12.40;96.70;;;;;;5103700;27;20047;-78
2021/10/18 08:00:21;;;;;;;12.43;4.85;;;12.40;96.70;;;;;;5102138;27;20847;-79
2021/10/18 08:02:49;;;;;;;7.55;4.47;;;12.50;96.70;;;;;;5105137;27;20527;-78
2021/10/18 08:05:18;;;;;;;7.78;5.38;;;12.60;96.70;;;;;;5118811;27;20040;-78
2021/10/18 08:07:49;;;;;;;5.82;4.65;;;12.70;96.70;;;;;;5102311;27;20062;-78
2021/10/18 08:10:24;;;;;;;5.55;4.43;;;12.80;96.70;;;;;;5101420;27;20039;-78
2021/10/18 08:12:54;;;;;;;8.07;4.63;;;12.90;96.70;;;;;;5095858;27;20049;-78
2021/10/18 08:15:25;;;;;;;6.10;4.82;;;13.00;96.70;;;;;;5120512;27;20041;-78
2021/10/18 08:17:54;;;;;;;6.28;4.43;;;13.20;96.70;;;;;;5103101;27;20039;-79
2021/10/18 08:20:23;;;;;;;7.10;4.43;;;13.20;96.70;;;;;;5092906;27;20036;-80
2021/10/18 08:22:51;;;;;;;6.10;4.03;;;13.30;96.70;;;;;;5121932;27;20119;-80
2021/10/18 08:25:19;;;;;;;14.82;4.63;;;13.50;96.70;;;;;;5118225;27;20040;-80
2021/10/18 08:27:48;;;;;;;11.82;4.18;;;13.60;96.70;;;;;;5100968;27;20035;-79
2021/10/18 08:30:16;;;;;;;6.63;3.33;;;13.70;96.70;;;;;;5103596;27;20035;-78
2021/10/18 08:32:46;;;;;;;8.25;3.75;;;13.70;96.70;;;;;;5122102;27;20058;-79
2021/10/18 08:35:15;;;;;;;8.77;3.20;;;13.80;96.70;;;;;;5099727;27;20405;-79
2021/10/18 08:40:32;;;;;;;5.22;3.17;;;14.10;96.70;;;;;;5099932;28;20039;-79
2021/10/18 08:45:31;;;;;;;6.57;4.35;;;14.30;96.70;;;;;;5114243;28;20714;-79
2021/10/18 08:48:01;;;;;;;5.90;3.92;;;14.40;96.70;;;;;;5095107;28;20063;-80
2021/10/18 08:50:29;;;;;;;13.25;4.72;;;14.50;96.70;;;;;;5109423;28;20035;-79
2021/10/18 08:52:57;;;;;;;6.82;4.22;;;14.40;96.70;;;;;;5102756;28;20529;-79
2021/10/18 08:55:25;;;;;;;9.27;5.60;;;14.30;96.70;;;;;;5102302;28;20123;-78
2021/10/18 08:57:53;;;;;;;11.65;5.85;;;14.30;96.70;;;;;;5102820;28;20060;-78
2021/10/18 09:00:39;;;;;;;20.20;6.40;;;14.50;96.70;;;;;;5099884;27;20040;-78
2021/10/18 09:03:17;;;;;;;9.45;6.35;;;14.70;96.70;;;;;;5100613;28;20158;-80
2021/10/18 09:05:45;;;;;;;11.15;6.22;;;14.80;96.70;;;;;;5100707;28;20064;-89
2021/10/18 09:08:36;;;;;;;10.70;5.72;;;14.90;96.70;;;;;;5089063;28;20043;-84
2021/10/18 09:11:09;;;;;;;7.63;5.40;;;15.10;96.70;;;;;;5106367;28;20061;-83
2021/10/18 09:13:43;;;;;;;8.25;5.25;;;15.10;96.70;;;;;;5089432;28;20047;-82
2021/10/18 09:16:21;;;;;;;9.70;4.90;;;15.20;96.70;;;;;;5106297;28;20124;-87
2021/10/18 09:19:05;;;;;;;7.40;4.30;;;15.30;96.70;;;;;;5088112;28;20044;-79
2021/10/18 09:21:36;;;;;;;7.40;4.32;;;15.30;96.70;;;;;;5098257;28;20459;-79
2021/10/18 09:24:05;;;;;;;6.20;4.05;;;15.30;96.70;;;;;;5102706;28;20046;-77
2021/10/18 09:26:34;;;;;;;6.88;3.95;;;15.30;96.70;;;;;;5100942;28;20050;-77
2021/10/18 09:29:08;;;;;;;8.13;4.03;;;15.40;96.70;;;;;;5085474;28;20056;-76
2021/10/18 09:31:38;;;;;;;7.53;3.55;;;15.60;96.70;;;;;;5117145;27;20108;-77
2021/10/18 09:34:11;;;;;;;6.72;3.42;;;15.70;96.70;;;;;;5102275;28;20131;-77
2021/10/18 09:36:40;;;;;;;5.22;3.55;;;15.80;96.70;;;;;;5082610;28;20098;-77
2021/10/18 09:39:26;;;;;;;6.63;3.90;;;16.00;96.70;;;;;;5100029;28;20131;-76
2021/10/18 09:42:01;;;;;;;5.43;3.65;;;16.00;96.70;;;;;;5098985;28;20143;-76
2021/10/18 10:51:31;;;;;;;6.53;3.30;;;18.70;96.70;;;;;;5100519;28;20051;-79
2021/10/18 10:54:05;;;;;;;5.93;3.42;;;18.70;96.70;;;;;;5117587;27;20107;-79
2021/10/18 10:56:45;;;;;;;4.30;3.03;;;18.80;96.70;;;;;;5103322;27;20483;-79
2021/10/18 10:59:23;;;;;;;5.88;3.53;;;18.90;96.70;;;;;;5111597;27;20039;-78
2021/10/18 11:01:57;;;;;;;6.60;2.42;;;19.00;96.70;;;;;;5123743;27;20039;-79
2021/10/18 11:04:43;;;;;;;4.28;2.40;;;19.10;96.70;;;;;;5099872;27;20043;-79
2021/10/18 11:07:18;;;;;;;3.65;2.63;;;19.10;96.70;;;;;;5097211;27;20050;-79
2021/10/18 11:09:49;;;;;;;4.57;2.60;;;19.10;96.70;;;;;;5119745;27;20484;-78
2021/10/18 11:12:29;;;;;;;3.28;2.30;;;19.10;96.70;;;;;;5104158;27;20142;-79
2021/10/18 11:15:01;;;;;;;3.72;2.05;;;19.20;96.70;;;;;;5117255;27;20439;-78
2021/10/18 11:17:31;;;;;;;2.47;2.10;;;19.30;96.70;;;;;;5119931;27;20035;-79
2021/10/18 11:20:03;;;;;;;5.13;2.25;;;19.30;96.70;;;;;;5123209;27;20035;-78
2021/10/18 11:22:33;;;;;;;3.15;2.20;;;19.50;96.70;;;;;;5101753;27;20047;-79
2021/10/18 11:25:05;;;;;;;2.55;2.05;;;19.60;96.70;;;;;;5103201;27;20039;-79
2021/10/18 11:27:36;;;;;;;4.15;2.13;;;19.80;96.70;;;;;;5102874;27;20102;-79
2021/10/18 11:30:08;;;;;;;3.25;1.98;;;19.90;96.70;;;;;;5121660;27;20126;-79
2021/10/18 11:32:37;;;;;;;4.38;1.80;;;19.90;96.70;;;;;;5120904;27;20047;-79
2021/10/18 11:35:12;;;;;;;4.53;1.80;;;19.90;96.70;;;;;;5104793;27;20039;-79
2021/10/18 11:38:05;;;;;;;1.52;1.38;;;20.00;96.60;;;;;;5103139;27;20055;-79
2021/10/18 11:40:35;;;;;;;2.45;1.40;;;20.00;94.70;;;;;;5085497;27;20050;-79
2021/10/18 11:43:07;;;;;;;2.20;1.40;;;20.00;94.70;;;;;;5102055;27;20497;-79
2021/10/18 11:45:37;;;;;;;1.90;1.25;;;20.10;94.50;;;;;;5103120;27;20163;-79
2021/10/18 11:48:08;;;;;;;3.35;1.50;;;20.20;94.00;;;;;;5104138;27;20047;-79
2021/10/18 11:50:38;;;;;;;3.42;1.58;;;20.30;93.40;;;;;;5116334;27;20047;-79
2021/10/18 11:53:12;;;;;;;1.95;1.50;;;20.40;93.30;;;;;;5120383;27;20046;-79
2021/10/18 11:55:42;;;;;;;2.15;1.40;;;20.40;92.90;;;;;;5100981;27;20040;-79
2021/10/18 11:58:16;;;;;;;2.40;1.30;;;20.40;91.70;;;;;;5118217;27;20054;-79
2021/10/18 12:00:44;;;;;;;2.50;1.20;;;20.40;91.80;;;;;;5103474;27;20481;-79
2021/10/18 12:03:15;;;;;;;4.00;1.45;;;20.60;91.60;;;;;;5110203;27;20609;-79
2021/10/18 12:05:44;;;;;;;1.98;1.10;;;20.80;91.30;;;;;;5101414;27;20053;-79
2021/10/18 12:08:15;;;;;;;2.35;1.30;;;20.70;90.50;;;;;;5101622;27;20039;-79
2021/10/18 12:10:45;;;;;;;3.70;1.40;;;20.80;90.10;;;;;;5101700;27;20050;-78
2021/10/18 12:13:23;;;;;;;2.30;1.10;;;20.90;90.40;;;;;;5100348;27;20042;-79
2021/10/18 12:15:56;;;;;;;2.05;1.08;;;21.20;90.30;;;;;;5086129;27;20051;-79
2021/10/18 12:18:26;;;;;;;1.80;1.20;;;21.30;90.40;;;;;;5117876;27;20039;-79
2021/10/18 12:20:56;;;;;;;1.67;1.23;;;21.30;89.70;;;;;;5099987;27;20589;-79
2021/10/18 12:23:29;;;;;;;1.70;1.42;;;21.40;89.70;;;;;;5114846;27;20070;-79
2021/10/18 12:26:00;;;;;;;2.25;1.20;;;21.50;89.00;;;;;;5117306;27;20036;-79
2021/10/18 12:28:48;;;;;;;1.10;1.00;;;21.70;89.40;;;;;;5101688;27;20051;-79
2021/10/18 12:31:37;;;;;;;2.85;0.98;;;21.60;88.50;;;;;;5081714;27;20043;-79
2021/10/18 12:34:14;;;;;;;2.08;1.15;;;21.60;88.70;;;;;;5101715;27;20142;-79
2021/10/18 12:36:55;;;;;;;2.80;0.93;;;21.80;87.90;;;;;;5099230;28;20067;-79
2021/10/18 12:39:46;;;;;;;1.10;1.00;;;22.00;87.90;;;;;;5085486;28;20505;-79
2021/10/18 12:42:32;;;;;;;2.08;1.10;;;22.10;87.80;;;;;;5098572;28;20524;-79
2021/10/18 12:45:08;;;;;;;2.63;1.00;;;21.90;87.50;;;;;;5098248;28;20541;-79
2021/10/18 12:47:38;;;;;;;1.45;1.20;;;21.90;87.50;;;;;;5098559;28;20416;-79
2021/10/18 12:50:11;;;;;;;1.85;1.35;;;22.00;87.90;;;;;;5095105;28;20039;-79
2021/10/18 12:52:41;;;;;;;2.03;1.10;;;22.10;88.00;;;;;;5100218;28;20136;-79
2021/10/18 12:55:11;;;;;;;1.45;1.20;;;22.00;87.80;;;;;;5099913;28;20489;-79
2021/10/18 12:57:48;;;;;;;3.08;1.35;;;21.90;87.70;;;;;;5096924;28;20045;-79
2021/10/18 13:00:20;;;;;;;1.45;1.20;;;21.90;88.00;;;;;;5096120;28;20044;-79
2021/10/18 13:02:48;;;;;;;2.97;1.27;;;22.00;87.80;;;;;;5099020;28;20428;-79
2021/10/18 13:05:19;;;;;;;4.32;1.60;;;22.00;88.00;;;;;;5097775;28;20093;-82
2021/10/18 13:07:56;;;;;;;3.08;1.85;;;22.20;87.80;;;;;;5098067;28;20501;-83
2021/10/18 13:10:29;;;;;;;3.38;2.00;;;22.10;88.00;;;;;;5078760;28;20043;-83
2021/10/18 13:12:59;;;;;;;2.47;1.42;;;22.20;88.70;;;;;;5099996;28;20043;-83
2021/10/18 13:15:29;;;;;;;2.15;1.48;;;22.30;88.10;;;;;;5100611;28;20101;-84
2021/10/18 13:17:57;;;;;;;2.90;1.70;;;22.30;87.20;;;;;;5107259;28;20096;-85
2021/10/18 13:20:27;;;;;;;1.77;1.40;;;22.40;86.40;;;;;;5099948;28;20052;-81
2021/10/18 13:22:59;;;;;;;2.00;1.50;;;22.40;87.00;;;;;;5096216;28;20043;-78
2021/10/18 13:25:29;;;;;;;4.70;1.80;;;22.40;86.10;;;;;;5097983;28;20043;-78
2021/10/18 13:27:58;;;;;;;2.50;1.88;;;22.50;87.90;;;;;;5095965;28;20054;-80
2021/10/18 13:30:29;;;;;;;3.67;1.60;;;22.50;86.30;;;;;;5099215;28;20404;-79
2021/10/18 13:33:00;;;;;;;3.33;1.90;;;22.50;87.50;;;;;;5095145;28;20059;-78
2021/10/18 13:35:30;;;;;;;2.35;1.60;;;22.50;87.20;;;;;;5096842;28;20134;-80
2021/10/18 13:37:58;;;;;;;2.90;1.60;;;22.50;87.40;;;;;;5098957;28;20100;-77
2021/10/18 13:40:29;;;;;;;3.50;1.80;;;22.50;86.80;;;;;;5083476;28;20096;-80
2021/10/18 13:42:58;;;;;;;4.25;1.67;;;22.40;86.40;;;;;;5091440;28;20047;-78
2021/10/18 13:45:26;;;;;;;3.63;1.85;;;22.40;87.70;;;;;;5101602;28;20055;-79
2021/10/18 13:47:56;;;;;;;3.65;1.95;;;22.50;87.10;;;;;;5101938;27;20159;-78
2021/10/18 13:50:25;;;;;;;2.65;2.00;;;22.50;86.70;;;;;;5101348;28;20497;-80
2021/10/18 13:52:54;;;;;;;3.13;1.70;;;22.50;87.60;;;;;;5101730;28;20036;-79
2021/10/18 13:55:24;;;;;;;2.97;1.60;;;22.50;87.00;;;;;;5101466;28;20043;-77
2021/10/18 13:57:54;;;;;;;4.10;1.58;;;22.50;87.80;;;;;;5113024;27;20059;-78
2021/10/18 14:00:23;;;;;;;2.60;1.80;;;22.50;87.50;;;;;;5107552;27;20051;-78
2021/10/18 14:02:53;;;;;;;1.90;1.27;;;22.50;87.80;;;;;;5101790;28;20541;-78
2021/10/18 14:05:23;;;;;;;3.45;1.40;;;22.50;87.80;;;;;;5083323;28;20158;-78
2021/10/18 14:07:51;;;;;;;3.88;1.50;;;22.50;87.70;;;;;;5088800;28;20051;-79
2021/10/18 14:10:20;;;;;;;3.20;1.35;;;22.60;88.20;;;;;;5101197;28;20129;-80
2021/10/18 14:12:49;;;;;;;3.08;1.65;;;22.70;87.10;;;;;;5103796;28;20051;-79
2021/10/18 14:15:17;;;;;;;3.22;1.80;;;22.80;87.90;;;;;;5096181;28;20042;-81